Aeroporto :
LOGIN :

Iscrizione | Disclaimer

   EN    FR    IT 

 










Sommario :    VFR   VFR Marginale   IFR   IFR Intensivo   IFR Molto Intensivo
Visibilità : 
Base nubi : 
>= 8 km
>= 3000ft
5 / 8 km
1000 / 3000 ft
1500m / 5 km
500 / 1000 ft
800 / 1500m
200 / 500 ft
< 800m
< 200 ft
Simboli :   Temporali  Nebbia  Neve Forte  Precipitazioni Forti  Vento > 20 kt
SIGMETs :   Varie  Temporali  Ghiacco  Turbolenza  Onda orograficha  Ceneri Vulcaniche






- Altitudine del aeroporto : 306 ft
- Codice IATA : EMA


EGNX - Nottingham East Midlands

ULTIMO METAR :
  • 211550Z 23021G31KT 9999 OVC020 09/06 Q1015

METARs OBSOLETI :
  • 211520Z 22020KT 9999 FEW018 BKN020 09/06 Q1015
  • 211450Z 23023KT 9999 BKN021 BKN027 09/06 Q1016
  • 211420Z 22018KT 9999 OVC023 09/05 Q1015
  • 211350Z 22021KT 9999 BKN023 09/05 Q1015
  • 211320Z 22023KT 9999 BKN023 09/04 Q1015

TAF TAF EGNX
Valido dal 21 a 12 ore il 22 a 12 ore UTC


211056Z 2112/2212 21018G28KT 9999 SCT025
PROB30
TEMPO 2112/2121 23027G40KT
PROB30
TEMPO 2120/2201 8000 -RA BKN014
TEMPO 2121/2206 23027G40KT
TEMPO 2201/2204 6000 RA BKN012
PROB30
TEMPO 2204/2212 8000 -RA
PROB30
TEMPO 2206/2212 24027G40KT
ATIS : +44 1332 852 852 (ext 3201)



MetMap, La meteo Aeronautica in un colpo d'occhio ! - Copyright ORBIFLY Dicembre 2007 - Disclaimer

ORBIFLY MET'MAP TEAM :

Programmazione e sviluppo : Alexandra Zaïnal
Concezione : Baudouin d'Aumeries
Aiuto per la programmazione : Marc-Olivier Méhu
Supporto tecnico e logistico : Manuel Goepfert
Aiuto per la traduzione : Arnaldo La Scala

Contatto : metmap@orbifly.com




FONTI E CREDITI :

   NOAA